メインページ
METAR-TAF:

METAR-TAF

空港 :

東京国際空港

東京 / 羽田国際空港, 日本

緯度: 35-33N, 経度: 139-47E, 海抜: 5m

現時点の気象観測

当レポートは41分前の11:30(UTC)に作成
北/北東の風 10kt
気温 19°C
湿度 88%
気圧 1010 hPa
視程10km以上
高度1500ftの雲はほとんどない
高度6000ftの雲は散在している
高度19000ftの曇り

METAR: RJTT 161130Z 02010KT 9999 FEW015 SCT060 OVC190 19/17 Q1010 NOSIG RMK 1CU015 3SC060 8AS190 A2984

時間: 21:11 (12:11 UTC)

予報

当レポートは1時間5分前の11:06(UTC)に作成
予報は16日の 12時(UTC)から 17日の 18時(UTC)まで有効
の風 10kt
視程10km以上
高度1500ftの雲はほとんどない
高度4000ftの千切れ雲あり
17日の 03時(UTC)から 17日の 06時(UTC)まで徐々に
北東の風 16kt

TAF: RJTT 161106Z 1612/1718 35010KT 9999 FEW015 BKN040 BECMG 1703/1706 05016KT

4,000以上の空港の気象観測と天気予報(METAR報とTAF報)

利用可能な観測所は地図上に黄色い丸と赤い丸で示す。

丸の上にカーソルを重ねると観測所名を参照できる。

次にクリックすると気象観測と天気予報を参照できる。

マップの切り替え:黒色「×」印の緑ボタンをクリックして拡大、「-」印の緑ボタンをクリックして縮小、緑色の三角印をクリックして隣りの地図に切り替え


METAR-TAF: